createdAt,value
2019-02-10T00:00:46.820Z,6.31
2019-02-10T00:03:15.769Z,6.31
2019-02-10T00:05:44.854Z,6.31
2019-02-10T00:08:13.642Z,6.34
2019-02-10T00:10:42.115Z,6.29
2019-02-10T00:13:30.168Z,6.24
2019-02-10T00:15:59.073Z,6.30
2019-02-10T00:18:27.560Z,6.30
2019-02-10T00:20:56.387Z,6.33
2019-02-10T00:23:25.533Z,6.34
2019-02-10T00:25:54.225Z,6.30
2019-02-10T00:28:22.670Z,6.30
2019-02-10T00:30:51.370Z,6.32
2019-02-10T00:33:19.832Z,6.28
2019-02-10T00:35:48.249Z,6.18
2019-02-10T00:38:17.333Z,6.17
2019-02-10T00:40:45.767Z,6.13
2019-02-10T00:43:14.218Z,6.13
2019-02-10T00:45:42.976Z,6.06
2019-02-10T00:48:11.456Z,6.07
2019-02-10T00:50:39.913Z,6.03
2019-02-10T00:53:08.358Z,6.04
2019-02-10T00:55:36.785Z,6.05
2019-02-10T00:58:05.244Z,6.07
2019-02-10T01:00:33.934Z,6.03
2019-02-10T01:03:02.366Z,5.93
2019-02-10T01:05:30.811Z,6.01
2019-02-10T01:07:59.256Z,5.93
2019-02-10T01:10:28.907Z,5.96
2019-02-10T01:12:57.380Z,5.91
2019-02-10T01:15:26.173Z,5.85
2019-02-10T01:17:54.605Z,5.80
2019-02-10T01:20:23.276Z,5.79
2019-02-10T01:22:51.781Z,5.74
2019-02-10T01:25:20.278Z,5.82
2019-02-10T01:27:49.050Z,5.79
2019-02-10T01:30:17.501Z,5.74
2019-02-10T01:32:45.953Z,5.66
2019-02-10T01:35:14.440Z,5.64
2019-02-10T01:37:43.929Z,5.67
2019-02-10T01:40:12.627Z,5.70
2019-02-10T01:42:41.067Z,5.74
2019-02-10T01:45:11.845Z,5.68
2019-02-10T01:47:40.289Z,5.64
2019-02-10T01:50:09.835Z,5.64
2019-02-10T01:52:38.531Z,5.57
2019-02-10T01:55:08.361Z,5.56
2019-02-10T01:57:37.121Z,5.61
2019-02-10T02:00:06.814Z,5.60
2019-02-10T02:02:35.234Z,5.67
2019-02-10T02:05:05.285Z,5.72
2019-02-10T02:07:34.010Z,5.69
2019-02-10T02:10:02.458Z,5.72
2019-02-10T02:12:30.881Z,5.70
2019-02-10T02:14:59.645Z,5.72
2019-02-10T02:17:28.416Z,5.74
2019-02-10T02:19:57.090Z,5.69
2019-02-10T02:22:25.810Z,5.62
2019-02-10T02:24:54.255Z,5.48
2019-02-10T02:27:22.976Z,5.38
2019-02-10T02:29:51.943Z,5.32
2019-02-10T02:32:20.427Z,5.28
2019-02-10T02:34:49.167Z,5.23
2019-02-10T02:37:17.590Z,5.23
2019-02-10T02:39:46.506Z,5.18
2019-02-10T02:42:14.932Z,5.12
2019-02-10T02:44:43.953Z,5.09
2019-02-10T02:47:12.398Z,5.06
2019-02-10T02:49:41.145Z,5.06
2019-02-10T02:52:10.240Z,5.07
2019-02-10T02:54:39.236Z,5.11
2019-02-10T02:57:08.035Z,5.10
2019-02-10T02:59:36.468Z,5.20
2019-02-10T03:02:04.922Z,5.20
2019-02-10T03:04:33.686Z,5.23
2019-02-10T03:07:02.115Z,5.19
2019-02-10T03:09:31.148Z,5.23
2019-02-10T03:11:59.595Z,5.25
2019-02-10T03:14:28.283Z,5.30
2019-02-10T03:16:57.032Z,5.29
2019-02-10T03:19:25.461Z,5.29
2019-02-10T03:21:54.579Z,5.32
2019-02-10T03:24:23.264Z,5.37
2019-02-10T03:26:52.351Z,5.36
2019-02-10T03:29:20.787Z,5.34
2019-02-10T03:31:49.825Z,5.35
2019-02-10T03:34:21.333Z,5.43
2019-02-10T03:36:50.280Z,5.53
2019-02-10T03:39:18.766Z,5.47
2019-02-10T03:41:47.823Z,5.49
2019-02-10T03:44:16.640Z,5.49
2019-02-10T03:46:45.974Z,5.49
2019-02-10T03:49:14.414Z,5.50
2019-02-10T03:51:42.928Z,5.47
2019-02-10T03:54:11.731Z,5.49
2019-02-10T03:56:41.004Z,5.54
2019-02-10T03:59:09.613Z,5.52
2019-02-10T04:01:38.504Z,5.45
2019-02-10T04:04:07.771Z,5.38
2019-02-10T04:06:36.211Z,5.34
2019-02-10T04:09:05.416Z,5.28
2019-02-10T04:11:34.351Z,5.27
2019-02-10T04:14:03.198Z,5.25
2019-02-10T04:16:31.662Z,5.18
2019-02-10T04:19:01.215Z,5.20
2019-02-10T04:21:32.212Z,5.22
2019-02-10T04:24:00.688Z,5.27
2019-02-10T04:26:29.253Z,5.25
2019-02-10T04:28:58.014Z,5.27
2019-02-10T04:31:26.675Z,5.33
2019-02-10T04:33:55.791Z,5.28
2019-02-10T04:36:24.209Z,5.28
2019-02-10T04:38:52.919Z,5.27
2019-02-10T04:41:21.637Z,5.26
2019-02-10T04:43:50.484Z,5.26
2019-02-10T04:46:18.925Z,5.21
2019-02-10T04:48:47.686Z,5.15
2019-02-10T04:51:16.112Z,5.09
2019-02-10T04:53:44.559Z,5.13
2019-02-10T04:56:19.298Z,5.10
2019-02-10T04:58:47.832Z,5.01
2019-02-10T05:01:16.357Z,4.94
2019-02-10T05:03:44.806Z,4.90
2019-02-10T05:06:13.519Z,4.89
2019-02-10T05:08:42.191Z,4.82
2019-02-10T05:11:10.630Z,4.81
2019-02-10T05:13:39.312Z,4.72
2019-02-10T05:16:07.741Z,4.81
2019-02-10T05:18:36.477Z,4.77
2019-02-10T05:21:04.946Z,4.68
2019-02-10T05:23:33.710Z,4.66
2019-02-10T05:26:02.873Z,4.67
2019-02-10T05:28:31.309Z,4.73
2019-02-10T05:31:00.026Z,4.64
2019-02-10T05:33:28.812Z,4.61
2019-02-10T05:35:57.682Z,4.63
2019-02-10T05:38:26.117Z,4.65
2019-02-10T05:40:55.467Z,4.64
2019-02-10T05:43:24.279Z,4.58
2019-02-10T05:45:52.910Z,4.52
2019-02-10T05:48:21.350Z,4.48
2019-02-10T05:50:50.545Z,4.47
2019-02-10T05:53:19.206Z,4.45
2019-02-10T05:55:49.520Z,4.41
2019-02-10T05:58:18.254Z,4.38
2019-02-10T06:00:46.730Z,4.36
2019-02-10T06:03:15.417Z,4.40
2019-02-10T06:05:43.853Z,4.36
2019-02-10T06:08:13.630Z,4.38
2019-02-10T06:10:42.392Z,4.31
2019-02-10T06:13:10.947Z,4.30
2019-02-10T06:15:39.701Z,4.32
2019-02-10T06:18:08.131Z,4.32
2019-02-10T06:20:37.031Z,4.37
2019-02-10T06:23:05.847Z,4.36
2019-02-10T06:25:34.570Z,4.31
2019-02-10T06:28:03.298Z,4.33
2019-02-10T06:30:31.760Z,4.29
2019-02-10T06:33:00.461Z,4.29
2019-02-10T06:35:29.171Z,4.33
2019-02-10T06:37:57.686Z,4.42
2019-02-10T06:40:26.819Z,4.37
2019-02-10T06:42:55.575Z,4.38
2019-02-10T06:45:24.836Z,4.33
2019-02-10T06:47:55.458Z,4.38
2019-02-10T06:50:23.896Z,4.50
2019-02-10T06:52:52.317Z,4.51
2019-02-10T06:55:20.828Z,4.58
2019-02-10T06:57:49.572Z,4.56
2019-02-10T07:00:36.174Z,4.52
2019-02-10T07:03:51.574Z,4.51
2019-02-10T07:06:23.313Z,4.58
2019-02-10T07:08:51.739Z,4.58
2019-02-10T07:11:21.090Z,4.63
2019-02-10T07:13:52.381Z,4.68
2019-02-10T07:16:42.102Z,4.82
2019-02-10T07:19:47.359Z,4.82
2019-02-10T07:23:06.904Z,4.84
2019-02-10T07:25:56.227Z,4.87
2019-02-10T07:29:00.667Z,4.91
2019-02-10T07:31:35.840Z,4.96
2019-02-10T07:34:49.788Z,5.00
2019-02-10T07:37:43.290Z,5.07
2019-02-10T07:40:57.642Z,5.10
2019-02-10T07:44:02.297Z,5.08
2019-02-10T07:47:12.379Z,5.03
2019-02-10T07:50:21.973Z,5.08
2019-02-10T07:53:03.489Z,5.09
2019-02-10T07:56:10.131Z,5.11
2019-02-10T07:59:22.858Z,5.17
2019-02-10T08:02:00.263Z,5.19
2019-02-10T08:05:13.266Z,5.22
2019-02-10T08:08:20.448Z,5.22
2019-02-10T08:11:35.772Z,5.17
2019-02-10T08:14:49.161Z,5.17
2019-02-10T08:17:39.353Z,5.20
2019-02-10T08:20:40.536Z,5.27
2019-02-10T08:23:36.145Z,5.29
2019-02-10T08:26:45.636Z,5.33
2019-02-10T08:29:39.039Z,5.38
2019-02-10T08:32:25.118Z,5.39
2019-02-10T08:35:27.904Z,5.44
2019-02-10T08:38:19.014Z,5.47
2019-02-10T08:41:47.192Z,5.54
2019-02-10T08:44:34.039Z,5.65
2019-02-10T08:47:42.847Z,5.61
2019-02-10T08:50:23.227Z,5.67
2019-02-10T08:53:01.968Z,5.72
2019-02-10T08:55:30.385Z,5.79
2019-02-10T08:57:58.838Z,5.77
2019-02-10T09:00:27.248Z,5.78
2019-02-10T09:02:55.685Z,5.83
2019-02-10T09:05:24.635Z,5.88
2019-02-10T09:07:53.552Z,5.91
2019-02-10T09:10:22.298Z,5.97
2019-02-10T09:12:51.378Z,5.93
2019-02-10T09:15:19.794Z,5.91
2019-02-10T09:17:48.240Z,5.90
2019-02-10T09:20:16.666Z,5.88
2019-02-10T09:22:45.388Z,5.93
2019-02-10T09:25:13.828Z,5.94
2019-02-10T09:27:42.282Z,6.03
2019-02-10T09:30:11.620Z,6.05
2019-02-10T09:32:40.358Z,6.05
2019-02-10T09:35:08.862Z,6.07
2019-02-10T09:37:37.286Z,6.09
2019-02-10T09:40:06.048Z,6.09
2019-02-10T09:42:34.860Z,6.09
2019-02-10T09:45:03.300Z,6.09
2019-02-10T09:47:32.091Z,6.11
2019-02-10T09:50:00.546Z,6.13
2019-02-10T09:52:29.028Z,6.15
2019-02-10T09:54:57.846Z,6.18
2019-02-10T09:57:26.954Z,6.16
2019-02-10T09:59:56.004Z,6.23
2019-02-10T10:02:24.452Z,6.16
2019-02-10T10:04:53.374Z,6.16
2019-02-10T10:07:21.800Z,6.21
2019-02-10T10:09:50.293Z,6.24
2019-02-10T10:12:19.433Z,6.27
2019-02-10T10:14:48.429Z,6.26
2019-02-10T10:17:17.420Z,6.29
2019-02-10T10:19:46.214Z,6.32
2019-02-10T10:22:16.922Z,6.33
2019-02-10T10:24:50.470Z,6.35
2019-02-10T10:27:15.996Z,6.37
2019-02-10T10:29:44.713Z,6.38
2019-02-10T10:32:13.818Z,6.38
2019-02-10T10:34:42.911Z,6.38
2019-02-10T10:37:11.677Z,6.43
2019-02-10T10:39:40.154Z,6.40
2019-02-10T10:42:09.192Z,6.40
2019-02-10T10:44:37.724Z,6.43
2019-02-10T10:47:06.615Z,6.44
2019-02-10T10:49:35.410Z,6.44
2019-02-10T10:52:03.854Z,6.50
2019-02-10T10:54:32.300Z,6.52
2019-02-10T10:57:00.743Z,6.52
2019-02-10T10:59:32.258Z,6.57
2019-02-10T11:02:00.957Z,6.62
2019-02-10T11:04:29.689Z,6.63
2019-02-10T11:06:58.116Z,6.63
2019-02-10T11:09:26.846Z,6.66
2019-02-10T11:11:55.987Z,6.65
2019-02-10T11:14:24.687Z,6.70
2019-02-10T11:16:53.128Z,6.72
2019-02-10T11:19:21.565Z,6.68
2019-02-10T11:21:50.022Z,6.68
2019-02-10T11:24:18.450Z,6.72
2019-02-10T11:26:46.905Z,6.76
2019-02-10T11:29:15.651Z,6.74
2019-02-10T11:31:44.092Z,6.72
2019-02-10T11:34:12.816Z,6.66
2019-02-10T11:36:41.541Z,6.69
2019-02-10T11:39:10.299Z,6.64
2019-02-10T11:41:39.065Z,6.67
2019-02-10T11:44:07.765Z,6.63
2019-02-10T11:46:36.222Z,6.61
2019-02-10T11:49:04.930Z,6.64
2019-02-10T11:51:33.621Z,6.63
2019-02-10T11:54:03.660Z,6.65
2019-02-10T11:56:32.098Z,6.64
2019-02-10T11:59:01.107Z,6.65
2019-02-10T12:01:29.545Z,6.62
2019-02-10T12:03:57.974Z,6.59
2019-02-10T12:06:26.689Z,6.61
2019-02-10T12:08:55.142Z,6.61
2019-02-10T12:11:23.601Z,6.62
2019-02-10T12:13:52.297Z,6.63
2019-02-10T12:16:21.697Z,6.64
2019-02-10T12:18:50.145Z,6.63
2019-02-10T12:21:18.591Z,6.64
2019-02-10T12:23:47.023Z,6.62
2019-02-10T12:26:15.460Z,6.67
2019-02-10T12:28:43.893Z,6.65
2019-02-10T12:31:12.349Z,6.64
2019-02-10T12:33:40.959Z,6.65
2019-02-10T12:36:09.694Z,6.66
2019-02-10T12:38:38.143Z,6.65
2019-02-10T12:41:06.592Z,6.65
2019-02-10T12:43:35.593Z,6.62
2019-02-10T12:46:04.265Z,6.62
2019-02-10T12:48:33.783Z,6.63
2019-02-10T12:51:02.299Z,6.66
2019-02-10T12:53:31.067Z,6.65
2019-02-10T12:55:59.806Z,6.65
2019-02-10T12:58:28.259Z,6.65
2019-02-10T13:00:57.017Z,6.68
2019-02-10T13:03:25.473Z,6.68
2019-02-10T13:05:53.903Z,6.71
2019-02-10T13:08:22.378Z,6.72
2019-02-10T13:10:51.143Z,6.80
2019-02-10T13:13:19.934Z,6.76
2019-02-10T13:15:48.353Z,6.82
2019-02-10T13:18:17.432Z,6.78
2019-02-10T13:20:45.885Z,6.82
2019-02-10T13:23:14.324Z,6.79
2019-02-10T13:25:43.171Z,6.77
2019-02-10T13:28:12.059Z,6.81
2019-02-10T13:30:40.942Z,6.84
2019-02-10T13:33:09.383Z,6.86
2019-02-10T13:35:38.523Z,6.92
2019-02-10T13:38:07.018Z,6.90
2019-02-10T13:40:35.439Z,6.89
2019-02-10T13:43:03.893Z,6.88
2019-02-10T13:45:32.652Z,6.94
2019-02-10T13:48:01.207Z,7.01
2019-02-10T13:50:29.914Z,6.97
2019-02-10T13:52:58.396Z,7.01
2019-02-10T13:55:27.141Z,6.99
2019-02-10T13:57:55.583Z,6.99
2019-02-10T14:00:24.040Z,7.07
2019-02-10T14:02:52.764Z,7.06
2019-02-10T14:05:21.214Z,7.14
2019-02-10T14:07:51.052Z,7.10
2019-02-10T14:10:25.583Z,7.16
2019-02-10T14:12:51.262Z,7.22
2019-02-10T14:15:20.044Z,7.22
2019-02-10T14:17:48.829Z,7.26
2019-02-10T14:20:17.257Z,7.29
2019-02-10T14:22:45.731Z,7.27
2019-02-10T14:25:14.179Z,7.31
2019-02-10T14:27:42.919Z,7.25
2019-02-10T14:30:13.050Z,7.30
2019-02-10T14:32:41.496Z,7.24
2019-02-10T14:35:09.960Z,7.21
2019-02-10T14:37:38.559Z,7.14
2019-02-10T14:40:07.077Z,7.12
2019-02-10T14:42:35.894Z,7.08
2019-02-10T14:45:04.787Z,7.05
2019-02-10T14:47:33.217Z,6.98
2019-02-10T14:50:01.751Z,6.94
2019-02-10T14:52:30.174Z,6.88
2019-02-10T14:54:58.878Z,6.86
2019-02-10T14:57:27.610Z,6.81
2019-02-10T14:59:56.567Z,6.78
2019-02-10T15:02:24.996Z,6.77
2019-02-10T15:04:53.451Z,6.76
2019-02-10T15:07:25.294Z,6.69
2019-02-10T15:09:52.066Z,6.68
2019-02-10T15:12:20.527Z,6.65
2019-02-10T15:14:48.973Z,6.76
2019-02-10T15:17:17.758Z,6.78
2019-02-10T15:19:46.788Z,6.74
2019-02-10T15:22:15.472Z,6.73
2019-02-10T15:24:44.247Z,6.71
2019-02-10T15:27:13.020Z,6.66
2019-02-10T15:29:41.743Z,6.63
2019-02-10T15:32:16.650Z,6.61
2019-02-10T15:34:41.361Z,6.57
2019-02-10T15:37:10.313Z,6.54
2019-02-10T15:39:38.748Z,6.50
2019-02-10T15:42:09.393Z,6.54
2019-02-10T15:44:37.945Z,6.55
2019-02-10T15:47:06.631Z,6.48
2019-02-10T15:49:35.391Z,6.46
2019-02-10T15:52:04.131Z,6.48
2019-02-10T15:54:32.568Z,6.48
2019-02-10T15:57:00.994Z,6.45
2019-02-10T15:59:29.750Z,6.41
2019-02-10T16:01:58.518Z,6.44
2019-02-10T16:04:27.285Z,6.42
2019-02-10T16:06:56.526Z,6.38
2019-02-10T16:09:25.019Z,6.38
2019-02-10T16:11:53.717Z,6.35
2019-02-10T16:14:22.153Z,6.38
2019-02-10T16:16:50.583Z,6.37
2019-02-10T16:19:19.369Z,6.38
2019-02-10T16:21:47.826Z,6.34
2019-02-10T16:24:16.249Z,6.26
2019-02-10T16:26:44.694Z,6.21
2019-02-10T16:29:13.115Z,6.18
2019-02-10T16:31:42.053Z,6.13
2019-02-10T16:34:10.714Z,6.13
2019-02-10T16:36:39.438Z,6.12
2019-02-10T16:39:12.183Z,6.04
2019-02-10T16:41:40.673Z,6.10
2019-02-10T16:44:09.381Z,6.07
2019-02-10T16:46:38.059Z,6.10
2019-02-10T16:49:06.499Z,6.06
2019-02-10T16:51:35.562Z,6.02
2019-02-10T16:54:04.038Z,5.99
2019-02-10T16:56:32.694Z,5.97
2019-02-10T16:59:03.168Z,5.98
2019-02-10T17:01:32.239Z,6.03
2019-02-10T17:04:00.738Z,6.07
2019-02-10T17:06:29.482Z,6.06
2019-02-10T17:08:57.911Z,6.05
2019-02-10T17:11:27.032Z,6.11
2019-02-10T17:13:55.472Z,6.06
2019-02-10T17:16:24.625Z,6.06
2019-02-10T17:18:53.323Z,6.06
2019-02-10T17:21:21.762Z,6.06
2019-02-10T17:23:50.465Z,6.01
2019-02-10T17:26:19.480Z,5.97
2019-02-10T17:28:48.168Z,5.94
2019-02-10T17:31:17.161Z,5.85
2019-02-10T17:33:45.586Z,5.77
2019-02-10T17:36:14.021Z,5.70
2019-02-10T17:38:42.488Z,5.65
2019-02-10T17:41:22.783Z,5.58
2019-02-10T17:43:50.610Z,5.53
2019-02-10T17:46:19.053Z,5.48
2019-02-10T17:48:47.535Z,5.45
2019-02-10T17:51:16.015Z,5.42
2019-02-10T17:53:44.468Z,5.48
2019-02-10T17:56:12.889Z,5.42
2019-02-10T17:58:41.327Z,5.43
2019-02-10T18:01:09.753Z,5.42
2019-02-10T18:03:38.728Z,5.36
2019-02-10T18:06:07.152Z,5.37
2019-02-10T18:08:35.942Z,5.38
2019-02-10T18:11:04.393Z,5.43
2019-02-10T18:13:32.839Z,5.41
2019-02-10T18:16:17.652Z,5.36
2019-02-10T18:18:53.345Z,5.33
2019-02-10T18:21:43.120Z,5.37
2019-02-10T18:24:21.598Z,5.33
2019-02-10T18:27:06.449Z,5.22
2019-02-10T18:30:00.862Z,5.14
2019-02-10T18:32:47.165Z,5.06
2019-02-10T18:35:42.282Z,5.03
2019-02-10T18:38:23.794Z,4.96
2019-02-10T18:41:11.280Z,4.91
2019-02-10T18:44:01.532Z,4.90
2019-02-10T18:46:52.174Z,4.87
2019-02-10T18:49:38.777Z,4.96
2019-02-10T18:52:22.401Z,4.97
2019-02-10T18:55:18.117Z,5.04
2019-02-10T18:58:05.864Z,5.06
2019-02-10T19:00:40.615Z,5.11
2019-02-10T19:03:32.535Z,5.05
2019-02-10T19:06:09.152Z,5.07
2019-02-10T19:09:03.829Z,5.01
2019-02-10T19:12:01.422Z,4.93
2019-02-10T19:14:51.729Z,4.82
2019-02-10T19:17:39.481Z,4.69
2019-02-10T19:20:36.157Z,4.59
2019-02-10T19:23:41.977Z,4.53
2019-02-10T19:26:25.716Z,4.49
2019-02-10T19:29:32.138Z,4.47
2019-02-10T19:32:18.930Z,4.40
2019-02-10T19:35:00.918Z,4.38
2019-02-10T19:37:47.393Z,4.32
2019-02-10T19:40:23.972Z,4.27
2019-02-10T19:43:30.336Z,4.17
2019-02-10T19:46:16.461Z,4.12
2019-02-10T19:49:03.171Z,3.98
2019-02-10T19:51:50.968Z,3.82
2019-02-10T19:54:28.157Z,3.74
2019-02-10T19:57:28.260Z,3.64
2019-02-10T20:00:34.440Z,3.51
2019-02-10T20:03:09.704Z,3.37
2019-02-10T20:05:57.693Z,3.25
2019-02-10T20:08:43.358Z,3.18
2019-02-10T20:11:33.445Z,3.07
2019-02-10T20:14:17.138Z,3.06
2019-02-10T20:17:10.715Z,3.04
2019-02-10T20:19:50.979Z,2.98
2019-02-10T20:22:24.962Z,2.90
2019-02-10T20:25:01.022Z,2.91
2019-02-10T20:28:00.536Z,2.84
2019-02-10T20:30:43.794Z,2.81
2019-02-10T20:33:21.045Z,2.80
2019-02-10T20:36:09.976Z,2.75
2019-02-10T20:39:06.660Z,2.75
2019-02-10T20:41:48.587Z,2.81
2019-02-10T20:44:36.886Z,2.83
2019-02-10T20:47:16.363Z,2.77
2019-02-10T20:50:04.380Z,2.72
2019-02-10T20:52:46.526Z,2.71
2019-02-10T20:55:25.321Z,2.73
2019-02-10T20:58:12.770Z,2.73
2019-02-10T21:00:59.431Z,2.75
2019-02-10T21:03:45.613Z,2.72
2019-02-10T21:06:31.889Z,2.70
2019-02-10T21:09:21.709Z,2.65
2019-02-10T21:12:05.606Z,2.59
2019-02-10T21:14:53.047Z,2.57
2019-02-10T21:17:39.113Z,2.49
2019-02-10T21:20:29.780Z,2.42
2019-02-10T21:23:23.734Z,2.39
2019-02-10T21:26:01.790Z,2.41
2019-02-10T21:28:47.951Z,2.33
2019-02-10T21:31:34.574Z,2.31
2019-02-10T21:34:31.596Z,2.27
2019-02-10T21:37:19.420Z,2.27
2019-02-10T21:40:15.870Z,2.24
2019-02-10T21:42:52.834Z,2.22
2019-02-10T21:45:46.585Z,2.16
2019-02-10T21:48:33.982Z,2.17
2019-02-10T21:51:02.736Z,2.14
2019-02-10T21:53:32.641Z,2.06
2019-02-10T21:56:01.753Z,2.07
2019-02-10T21:58:30.726Z,2.08
2019-02-10T22:00:59.542Z,2.03
2019-02-10T22:03:28.113Z,1.99
2019-02-10T22:05:57.088Z,1.95
2019-02-10T22:08:26.006Z,1.97
2019-02-10T22:10:54.980Z,1.99
2019-02-10T22:13:23.870Z,1.94
2019-02-10T22:15:53.369Z,1.93
2019-02-10T22:18:21.891Z,1.98
2019-02-10T22:20:50.397Z,2.02
2019-02-10T22:23:18.857Z,2.03
2019-02-10T22:25:47.352Z,2.01
2019-02-10T22:28:15.800Z,2.01
2019-02-10T22:30:44.225Z,2.02
2019-02-10T22:33:13.037Z,2.01
2019-02-10T22:35:41.463Z,1.96
2019-02-10T22:38:10.326Z,1.81
2019-02-10T22:40:39.061Z,1.72
2019-02-10T22:43:07.683Z,1.70
2019-02-10T22:45:36.673Z,1.68
2019-02-10T22:48:05.181Z,1.68
2019-02-10T22:50:35.294Z,1.64
2019-02-10T22:53:03.799Z,1.65
2019-02-10T22:55:32.316Z,1.68
2019-02-10T22:58:00.746Z,1.58
2019-02-10T23:00:47.012Z,1.56
2019-02-10T23:03:16.383Z,1.55
2019-02-10T23:05:44.935Z,1.48
2019-02-10T23:08:13.752Z,1.42
2019-02-10T23:10:42.271Z,1.45
2019-02-10T23:13:11.364Z,1.43
2019-02-10T23:15:39.793Z,1.41
2019-02-10T23:18:08.224Z,1.43
2019-02-10T23:20:36.647Z,1.50
2019-02-10T23:23:05.389Z,1.51
2019-02-10T23:25:33.885Z,1.52
2019-02-10T23:28:02.862Z,1.57
2019-02-10T23:30:31.580Z,1.53
2019-02-10T23:33:00.009Z,1.56
2019-02-10T23:35:28.578Z,1.58
2019-02-10T23:37:57.003Z,1.63
2019-02-10T23:40:25.635Z,1.64
2019-02-10T23:43:01.728Z,1.71
2019-02-10T23:45:24.888Z,1.68
2019-02-10T23:47:53.576Z,1.69
2019-02-10T23:50:22.564Z,1.73
2019-02-10T23:52:51.256Z,1.78
2019-02-10T23:55:19.824Z,1.79
2019-02-10T23:57:48.586Z,1.80
